Time;durP1;ratioP1;P1;durP2;ratioP2;P2;SDS_P1;SDS_P2;PMS_P1;PMS_P2;Temp;Humidity;BMP_temperature;BMP_pressure;BME280_temperature;BME280_humidity;BME280_pressure;Samples;Min_cycle;Max_cycle;Signal;HPM_P1;HPM_P2
2023/11/28 00:02:25;;;;;;;12.83;9.67;;;;;;;-141.84;100.00;119224.81;4992231;28;20310;-70
2023/11/28 00:04:53;;;;;;;11.70;8.80;;;;;;;-141.84;100.00;119224.81;4992242;28;20227;-69
2023/11/28 00:07:22;;;;;;;13.70;10.30;;;;;;;-141.84;100.00;119224.81;4992110;28;20227;-69
2023/11/28 00:09:51;;;;;;;11.50;9.20;;;;;;;-141.84;100.00;119224.81;5009050;28;20237;-70
2023/11/28 00:12:20;;;;;;;11.93;9.50;;;;;;;-141.84;100.00;119224.81;5011577;28;20206;-69
2023/11/28 00:14:49;;;;;;;11.73;9.27;;;;;;;-141.84;100.00;119224.81;5012171;28;20701;-69
2023/11/28 00:17:19;;;;;;;10.90;9.07;;;;;;;-141.84;100.00;119224.81;5011676;28;20259;-69
2023/11/28 00:19:48;;;;;;;11.47;8.87;;;;;;;-141.84;100.00;119224.81;5011516;28;20232;-69
2023/11/28 00:22:16;;;;;;;11.67;9.03;;;;;;;-141.84;100.00;119224.81;5011595;28;20226;-68
2023/11/28 00:24:45;;;;;;;11.07;8.83;;;;;;;-141.84;100.00;119224.81;5011606;28;20340;-69
2023/11/28 00:27:13;;;;;;;9.33;7.93;;;;;;;-141.84;100.00;119224.81;5011604;28;20285;-70
2023/11/28 00:29:42;;;;;;;10.17;8.40;;;;;;;-141.84;100.00;119224.81;5011709;28;20195;-69
2023/11/28 00:32:10;;;;;;;9.73;8.27;;;;;;;-141.84;100.00;119224.81;5011248;28;20652;-70
2023/11/28 00:34:41;;;;;;;9.57;7.30;;;;;;;-141.84;100.00;119224.81;5011424;28;20611;-68
2023/11/28 00:37:10;;;;;;;9.03;7.43;;;;;;;-141.84;100.00;119224.81;5011482;28;20321;-68
2023/11/28 00:39:41;;;;;;;7.27;6.50;;;;;;;-141.84;100.00;119224.81;5011392;28;20365;-69
2023/11/28 00:42:12;;;;;;;7.60;6.77;;;;;;;-141.84;100.00;119224.81;5011829;28;20219;-69
2023/11/28 00:44:42;;;;;;;8.70;7.07;;;;;;;-141.84;100.00;119224.81;4991724;28;20218;-69
2023/11/28 00:47:10;;;;;;;8.13;6.57;;;;;;;-141.84;100.00;119224.81;5007510;28;20551;-69
2023/11/28 00:49:43;;;;;;;7.63;6.57;;;;;;;-141.84;100.00;119224.81;5011255;28;20237;-70
2023/11/28 00:52:12;;;;;;;6.77;6.07;;;;;;;-141.84;100.00;119224.81;5011335;28;20233;-70
2023/11/28 00:54:41;;;;;;;7.13;6.37;;;;;;;-141.84;100.00;119224.81;5011117;28;20718;-68
2023/11/28 00:57:10;;;;;;;7.53;6.40;;;;;;;-141.84;100.00;119224.81;5011539;28;20277;-69
2023/11/28 00:59:39;;;;;;;6.97;5.83;;;;;;;-141.84;100.00;119224.81;4988403;28;20244;-70
2023/11/28 01:02:08;;;;;;;6.73;5.90;;;;;;;-141.84;100.00;119224.81;4987574;28;20259;-69
2023/11/28 01:04:37;;;;;;;7.10;5.97;;;;;;;-141.84;100.00;119224.81;4991599;28;20246;-69
2023/11/28 01:07:07;;;;;;;6.93;5.67;;;;;;;-141.84;100.00;119224.81;4998781;28;20238;-69
2023/11/28 01:09:36;;;;;;;7.60;6.27;;;;;;;-141.84;100.00;119224.81;5011512;28;20258;-71
2023/11/28 01:12:05;;;;;;;7.43;6.50;;;;;;;-141.84;100.00;119224.81;5011476;28;20202;-70
2023/11/28 01:14:33;;;;;;;7.73;6.87;;;;;;;-141.84;100.00;119224.81;5010554;28;20285;-70
2023/11/28 01:17:06;;;;;;;7.60;6.80;;;;;;;-141.84;100.00;119224.81;5010784;28;20277;-69
2023/11/28 01:19:36;;;;;;;8.43;6.50;;;;;;;-141.84;100.00;119224.81;5010780;28;20241;-69
2023/11/28 01:22:06;;;;;;;7.00;6.30;;;;;;;-141.84;100.00;119224.81;5011206;28;20226;-69
2023/11/28 01:24:35;;;;;;;7.43;6.30;;;;;;;-141.84;100.00;119224.81;5011036;28;20254;-68
2023/11/28 01:27:03;;;;;;;7.63;6.40;;;;;;;-141.84;100.00;119224.81;5010865;28;20675;-68
2023/11/28 01:29:33;;;;;;;6.27;5.67;;;;;;;-141.84;100.00;119224.81;5010303;28;20310;-69
2023/11/28 01:32:02;;;;;;;7.93;6.30;;;;;;;-141.84;100.00;119224.81;5010416;28;20258;-69
2023/11/28 01:34:31;;;;;;;6.73;5.97;;;;;;;-141.84;100.00;119224.81;5010927;28;20606;-69
2023/11/28 01:37:00;;;;;;;6.90;6.20;;;;;;;-141.84;100.00;119224.81;5008173;28;20226;-69
2023/11/28 01:39:30;;;;;;;6.60;5.90;;;;;;;-141.84;100.00;119224.81;5009786;28;20213;-69
2023/11/28 01:41:58;;;;;;;6.73;5.83;;;;;;;-141.84;100.00;119224.81;5010693;28;20203;-70
2023/11/28 01:44:27;;;;;;;6.90;6.20;;;;;;;-141.84;100.00;119224.81;5010676;28;20261;-70
2023/11/28 01:46:55;;;;;;;7.20;5.80;;;;;;;-141.84;100.00;119222.75;5010650;28;20228;-69
2023/11/28 01:49:24;;;;;;;6.40;5.67;;;;;;;-141.84;100.00;119222.75;5010647;28;20402;-68
2023/11/28 01:51:53;;;;;;;5.97;5.37;;;;;;;-141.84;100.00;119224.81;5010406;28;20223;-69
2023/11/28 01:54:21;;;;;;;6.33;5.47;;;;;;;-141.84;100.00;119224.81;5010922;28;20203;-69
2023/11/28 01:56:52;;;;;;;7.57;6.03;;;;;;;-141.84;100.00;119224.81;5010659;28;20270;-70
2023/11/28 01:59:21;;;;;;;5.67;5.03;;;;;;;-141.84;100.00;119224.81;5009232;28;20234;-69
2023/11/28 02:01:51;;;;;;;7.53;6.43;;;;;;;-141.84;100.00;119224.81;5003089;28;20682;-69
2023/11/28 02:04:20;;;;;;;6.07;5.20;;;;;;;-141.84;100.00;119224.81;5010661;28;20599;-69
2023/11/28 02:06:48;;;;;;;6.23;5.63;;;;;;;-141.84;100.00;119224.81;5010273;28;20229;-70
2023/11/28 02:09:17;;;;;;;6.40;5.70;;;;;;;-141.84;100.00;119224.81;5011301;28;20238;-69
2023/11/28 02:11:45;;;;;;;6.93;6.23;;;;;;;-141.84;100.00;119224.81;5014163;28;20203;-69
2023/11/28 02:14:15;;;;;;;7.20;6.30;;;;;;;-141.84;100.00;119224.81;5013982;28;20273;-69
2023/11/28 02:16:44;;;;;;;6.93;6.00;;;;;;;-141.84;100.00;119224.81;5013724;28;20230;-69
2023/11/28 02:19:13;;;;;;;7.00;5.90;;;;;;;-141.84;100.00;119224.81;5013662;28;20226;-69
2023/11/28 02:21:41;;;;;;;7.60;6.27;;;;;;;-141.84;100.00;119224.81;5013696;28;20310;-69
2023/11/28 02:24:14;;;;;;;7.23;6.40;;;;;;;-141.84;100.00;119224.81;5014084;28;20242;-70
2023/11/28 02:26:44;;;;;;;9.20;7.10;;;;;;;-141.84;100.00;119224.81;5013600;28;20211;-69
2023/11/28 02:29:12;;;;;;;7.90;6.63;;;;;;;-141.84;100.00;119224.81;5013162;28;20236;-69
2023/11/28 02:31:41;;;;;;;8.07;6.90;;;;;;;-141.84;100.00;119224.81;5013225;28;20266;-69
2023/11/28 02:34:09;;;;;;;7.43;6.60;;;;;;;-141.84;100.00;119224.81;5013516;28;20226;-69
2023/11/28 02:36:38;;;;;;;8.47;7.33;;;;;;;-141.84;100.00;119224.81;5013326;28;20231;-70
2023/11/28 02:39:06;;;;;;;8.47;7.40;;;;;;;-141.84;100.00;119224.81;5013587;28;20617;-68
2023/11/28 02:41:35;;;;;;;8.83;6.73;;;;;;;-141.84;100.00;119224.81;5012917;28;20585;-69
2023/11/28 02:44:05;;;;;;;9.50;7.17;;;;;;;-141.84;100.00;119224.81;5012847;28;20252;-69
2023/11/28 02:46:33;;;;;;;7.30;6.27;;;;;;;-141.84;100.00;119224.81;5012964;28;20659;-68
2023/11/28 02:49:02;;;;;;;7.80;6.50;;;;;;;-141.84;100.00;119224.81;5013282;28;20269;-69
2023/11/28 02:51:31;;;;;;;6.80;6.10;;;;;;;-141.84;100.00;119224.81;5013098;28;20614;-70
2023/11/28 02:53:59;;;;;;;8.03;6.43;;;;;;;-141.84;100.00;119224.81;5013693;28;20603;-69
2023/11/28 02:56:28;;;;;;;6.30;5.70;;;;;;;-141.84;100.00;119224.81;5012879;28;20230;-69
2023/11/28 02:58:56;;;;;;;7.00;6.07;;;;;;;-141.84;100.00;119224.81;4993251;28;20250;-69
2023/11/28 03:01:26;;;;;;;8.03;6.47;;;;;;;-141.84;100.00;119224.81;4993030;28;20321;-70
2023/11/28 03:03:55;;;;;;;7.50;6.67;;;;;;;-141.84;100.00;119224.81;4993142;28;20273;-69
2023/11/28 03:06:24;;;;;;;8.10;6.10;;;;;;;-141.84;100.00;119224.81;4993332;28;20291;-69
2023/11/28 03:08:52;;;;;;;8.07;6.53;;;;;;;-141.84;100.00;119224.81;4993550;28;20314;-69
2023/11/28 03:11:21;;;;;;;7.77;6.63;;;;;;;-141.84;100.00;119224.81;4992898;28;20719;-69
2023/11/28 03:13:49;;;;;;;7.50;6.63;;;;;;;-141.84;100.00;119224.81;5006519;28;20314;-68
2023/11/28 03:16:18;;;;;;;7.47;6.70;;;;;;;-141.84;100.00;119222.75;5012753;28;20731;-69
2023/11/28 03:18:48;;;;;;;7.57;6.73;;;;;;;-141.84;100.00;119222.75;5012622;28;20222;-69
2023/11/28 03:21:16;;;;;;;8.80;6.67;;;;;;;-141.84;100.00;118956.03;5012215;28;20297;-70
2023/11/28 03:23:45;;;;;;;7.73;6.50;;;;;;;-141.84;100.00;118956.03;5013049;28;20257;-69
2023/11/28 03:26:13;;;;;;;7.07;6.13;;;;;;;-141.84;100.00;118956.03;5012201;28;20258;-69
2023/11/28 03:28:41;;;;;;;7.90;6.63;;;;;;;-141.84;100.00;118956.03;5011965;28;20235;-70
2023/11/28 03:31:13;;;;;;;8.03;6.83;;;;;;;-141.84;100.00;119222.75;5012198;28;20258;-69
2023/11/28 03:33:41;;;;;;;7.90;6.50;;;1.20;99.90;;;-141.84;100.00;119222.75;5011745;28;20710;-69
2023/11/28 03:36:17;;;;;;;7.00;6.30;;;1.30;99.90;;;-141.84;100.00;119224.81;5013012;28;20257;-69
2023/11/28 03:38:48;;;;;;;7.77;6.70;;;1.20;99.90;;;-141.84;100.00;119224.81;5010319;28;20702;-69
2023/11/28 03:41:17;;;;;;;8.87;7.33;;;1.20;99.90;;;-141.84;100.00;119224.81;5012154;28;20230;-69
2023/11/28 03:43:45;;;;;;;9.73;7.93;;;1.20;99.90;;;-141.84;100.00;119222.75;5011787;28;20315;-69
2023/11/28 03:46:13;;;;;;;10.10;7.53;;;1.30;99.90;;;-141.84;100.00;119222.75;5012487;28;20230;-69
2023/11/28 03:48:41;;;;;;;10.93;8.47;;;1.40;99.90;;;-141.84;100.00;119222.75;5012545;28;20224;-69
2023/11/28 03:51:09;;;;;;;9.03;7.83;;;1.30;99.90;;;-141.84;100.00;119222.75;5013536;28;20722;-69
2023/11/28 03:53:39;;;;;;;11.20;8.43;;;1.30;99.90;;;-141.84;100.00;119222.75;5012625;28;20691;-69
2023/11/28 03:56:09;;;;;;;10.83;8.33;;;1.20;99.90;;;-141.84;100.00;119224.81;5012804;28;20226;-69
2023/11/28 03:58:37;;;;;;;11.40;8.97;;;1.10;99.90;;;-141.84;100.00;119224.81;5012718;28;20229;-70
2023/11/28 04:01:06;;;;;;;12.43;9.97;;;1.10;99.90;;;-141.84;100.00;119224.81;4997583;28;20231;-69
2023/11/28 04:03:34;;;;;;;10.73;9.33;;;1.00;99.90;;;-141.84;100.00;119224.81;4993876;28;20243;-69
2023/11/28 04:06:02;;;;;;;13.93;10.23;;;1.20;99.90;;;-141.84;100.00;119224.81;4995423;28;20298;-69
2023/11/28 04:08:31;;;;;;;13.47;10.97;;;1.10;99.90;;;-141.84;100.00;119224.81;4994084;28;21041;-69
2023/11/28 04:11:00;;;;;;;13.50;10.43;;;1.20;99.90;;;-141.84;100.00;119224.81;4994111;28;20250;-70
2023/11/28 04:13:28;;;;;;;13.73;10.67;;;1.20;99.90;;;-141.84;100.00;119222.75;5004420;28;20730;-69
2023/11/28 04:15:56;;;;;;;12.43;10.33;;;1.20;99.90;;;-141.84;100.00;118156.06;5014636;28;20222;-70
2023/11/28 04:18:27;;;;;;;12.43;10.60;;;1.20;99.90;;;-141.84;100.00;117622.84;5014420;28;20245;-68
2023/11/28 04:20:55;;;;;;;13.03;10.67;;;1.20;99.90;;;-141.84;100.00;117889.44;5016664;28;20189;-69
2023/11/28 04:23:23;;;;;;;11.67;10.43;;;1.10;99.90;;;-141.84;100.00;118156.06;5013320;28;20265;-69
2023/11/28 04:25:51;;;;;;;13.07;11.00;;;1.20;99.90;;;-141.84;100.00;117622.84;5013165;28;20738;-70
2023/11/28 04:28:21;;;;;;;14.07;10.50;;;1.10;99.90;;;-141.84;100.00;117356.25;5012882;28;20234;-69
2023/11/28 04:30:49;;;;;;;12.70;10.03;;;1.10;99.90;;;-141.84;100.00;117889.44;5013625;28;20662;-70
2023/11/28 04:33:17;;;;;;;12.83;10.60;;;1.10;99.90;;;-141.84;100.00;117889.44;5010582;28;20230;-69
2023/11/28 04:35:46;;;;;;;12.80;10.70;;;1.10;99.90;;;-141.84;100.00;116823.13;5011955;28;20202;-69
2023/11/28 04:38:14;;;;;;;12.93;10.43;;;1.10;99.90;;;-141.84;100.00;117089.69;5011814;28;20226;-69
2023/11/28 04:40:42;;;;;;;13.53;10.93;;;1.10;99.90;;;-141.84;100.00;117089.69;5011353;28;20239;-69
2023/11/28 04:43:10;;;;;;;13.57;10.97;;;1.10;99.90;;;-141.84;100.00;118156.06;5011216;28;20234;-69
2023/11/28 04:45:40;;;;;;;15.10;11.87;;;1.10;99.90;;;-141.84;100.00;117089.69;5010986;28;20298;-69
2023/11/28 04:48:08;;;;;;;14.30;10.80;;;1.00;99.90;;;-141.84;100.00;116290.06;5011691;28;20239;-69
2023/11/28 04:50:36;;;;;;;14.67;11.73;;;1.00;99.90;;;-141.84;100.00;115490.59;5010734;28;20234;-69
2023/11/28 04:53:04;;;;;;;14.40;11.03;;;0.90;99.90;;;-141.84;100.00;115490.59;5010900;28;20254;-70
2023/11/28 04:55:33;;;;;;;14.87;11.33;;;0.90;99.90;;;-141.84;100.00;115224.16;5010588;28;20330;-70
2023/11/28 04:58:01;;;;;;;13.30;11.67;;;0.90;99.90;;;-141.84;100.00;114957.72;5011068;28;20223;-68
2023/11/28 05:00:29;;;;;;;15.03;11.43;;;0.90;99.90;;;-141.84;100.00;114424.91;5000022;28;20281;-70
2023/11/28 05:02:59;;;;;;;15.23;11.27;;;0.80;99.90;;;-141.84;100.00;115757.06;4991837;28;20242;-69
2023/11/28 05:05:27;;;;;;;14.43;11.60;;;0.70;99.90;;;-141.84;100.00;117356.25;4990935;28;20234;-69
2023/11/28 05:07:56;;;;;;;16.20;11.30;;;0.70;99.90;;;-141.84;100.00;116823.13;4991201;28;20311;-69
2023/11/28 05:10:24;;;;;;;13.63;10.57;;;0.80;99.90;;;-141.84;100.00;114957.72;4990973;28;20239;-69
2023/11/28 05:12:53;;;;;;;15.00;11.07;;;0.80;99.90;;;-141.84;100.00;114691.31;4996660;28;20664;-69
2023/11/28 05:15:21;;;;;;;13.90;10.70;;;0.80;99.90;;;-141.84;100.00;114957.72;5010300;28;20297;-69
2023/11/28 05:17:49;;;;;;;14.90;11.83;;;0.70;99.90;;;-141.84;100.00;116290.06;5011049;28;20203;-70
2023/11/28 05:20:19;;;;;;;15.27;11.70;;;0.60;99.90;;;-141.84;100.00;116823.13;5010210;28;20303;-70
2023/11/28 05:22:47;;;;;;;13.53;10.97;;;0.70;99.90;;;-141.84;100.00;116290.06;5010603;28;20378;-69
2023/11/28 05:25:15;;;;;;;13.93;10.10;;;0.80;99.90;;;-141.84;100.00;114957.72;5010153;28;20780;-70
2023/11/28 05:27:44;;;;;;;13.97;10.20;;;0.80;99.90;;;-141.84;100.00;111761.88;5010309;28;20229;-70
2023/11/28 05:30:13;;;;;;;12.60;9.60;;;0.80;99.90;;;-141.84;100.00;109898.81;5010569;28;20333;-70
2023/11/28 05:32:41;;;;;;;11.70;8.93;;;0.70;99.90;;;-141.84;100.00;111495.69;5010703;28;20265;-69
2023/11/28 05:35:10;;;;;;;11.27;8.97;;;0.70;99.90;;;-141.84;100.00;110963.31;5010306;28;20234;-70
2023/11/28 05:37:40;;;;;;;12.97;9.33;;;0.70;99.90;;;-141.84;100.00;110963.31;5010628;28;20253;-70
2023/11/28 05:40:10;;;;;;;12.17;10.17;;;0.70;99.90;;;-141.84;100.00;110963.31;5010499;28;20296;-70
2023/11/28 05:42:38;;;;;;;12.53;9.43;;;0.70;99.90;;;-141.84;100.00;110431.03;5010437;28;20257;-70
2023/11/28 05:45:07;;;;;;;13.77;10.03;;;0.80;99.90;;;-141.84;100.00;109632.72;5013138;28;20240;-69
2023/11/28 05:47:37;;;;;;;13.63;10.53;;;0.70;99.90;;;-141.84;100.00;111495.69;5014175;28;20234;-70
2023/11/28 05:50:07;;;;;;;12.10;9.97;;;0.60;99.90;;;-141.84;100.00;112826.88;5014136;28;20231;-69
2023/11/28 05:52:36;;;;;;;12.57;10.20;;;0.70;99.90;;;-141.84;100.00;108568.56;5013997;28;20234;-70
2023/11/28 05:55:06;;;;;;;13.43;10.20;;;0.80;99.90;;;-141.84;100.00;107504.66;5014139;28;20280;-71
2023/11/28 05:57:35;;;;;;;12.70;9.97;;;0.60;99.90;;;-141.84;100.00;107504.66;5014173;28;20234;-70
2023/11/28 06:00:04;;;;;;;13.77;10.67;;;0.80;99.90;;;-141.84;100.00;108302.56;5006861;28;20211;-72
2023/11/28 06:02:32;;;;;;;13.20;10.77;;;0.70;99.90;;;-141.84;100.00;110164.91;4994363;28;20258;-70
2023/11/28 06:05:02;;;;;;;13.43;10.87;;;0.80;99.90;;;-141.84;100.00;109366.66;5002327;28;20222;-70
2023/11/28 06:07:30;;;;;;;13.93;10.47;;;0.80;99.90;;;-141.84;100.00;107770.63;5013932;28;20756;-70
2023/11/28 06:10:00;;;;;;;14.83;11.63;;;0.80;99.90;;;-141.84;100.00;106972.81;5013991;28;20229;-71
2023/11/28 06:12:29;;;;;;;15.07;10.77;;;0.80;99.90;;;-141.84;100.00;107504.66;5013983;28;20209;-70
2023/11/28 06:14:58;;;;;;;13.40;10.50;;;0.70;99.90;;;-141.84;100.00;109366.66;5014291;28;20226;-70
2023/11/28 06:17:26;;;;;;;16.00;11.63;;;0.70;99.90;;;-141.84;100.00;105377.72;5013675;28;20228;-70
2023/11/28 06:19:54;;;;;;;15.37;11.13;;;0.70;99.90;;;-141.84;100.00;103783.25;5014048;28;20223;-72
2023/11/28 06:22:22;;;;;;;14.10;10.77;;;0.60;99.90;;;-141.84;100.00;104580.41;5014159;28;20230;-70
2023/11/28 06:24:51;;;;;;;14.33;11.20;;;0.60;99.90;;;-141.84;100.00;103783.25;5013820;28;20999;-70
2023/11/28 06:27:19;;;;;;;16.37;12.00;;;0.70;99.90;;;-141.84;100.00;102455.00;5013856;28;20203;-70
2023/11/28 06:29:53;;;;;;;15.50;12.13;;;0.60;99.90;;;-141.84;100.00;102720.59;5013986;28;20580;-70
2023/11/28 06:32:21;;;;;;;19.13;12.60;;;0.70;99.90;;;-141.84;100.00;103783.25;5006438;28;20262;-70
2023/11/28 06:34:49;;;;;;;19.93;13.10;;;0.70;99.90;;;-141.84;100.00;106175.19;4994021;28;20232;-71
2023/11/28 06:37:20;;;;;;;18.97;13.10;;;0.40;99.90;;;-141.84;100.00;104846.16;5003506;28;20229;-71
2023/11/28 06:39:48;;;;;;;17.47;12.53;;;0.60;99.90;;;-141.84;100.00;103251.88;5013464;28;20245;-70
2023/11/28 06:42:16;;;;;;;15.50;11.83;;;0.60;99.90;;;-141.84;100.00;104846.16;5013142;28;20218;-70
2023/11/28 06:44:44;;;;;;;14.23;11.10;;;0.60;99.90;;;-141.84;100.00;105643.53;5013847;28;20280;-71
2023/11/28 06:47:14;;;;;;;17.97;12.47;;;0.60;99.90;;;-141.84;100.00;105111.94;5013115;28;20765;-71
2023/11/28 06:49:45;;;;;;;14.27;11.03;;;0.50;99.90;;;-141.84;100.00;105909.34;5013015;28;20781;-70
2023/11/28 06:52:14;;;;;;;15.37;11.67;;;0.50;99.90;;;-141.84;100.00;107238.72;5012290;28;20231;-70
2023/11/28 06:54:43;;;;;;;13.93;10.77;;;0.50;99.90;;;-141.84;100.00;105643.53;5011759;28;20222;-70
2023/11/28 06:57:12;;;;;;;15.20;11.60;;;0.50;99.90;;;-141.84;100.00;107770.63;5006222;28;20626;-72
2023/11/28 06:59:40;;;;;;;14.20;10.67;;;0.60;99.90;;;-141.84;100.00;105643.53;5002989;28;20610;-70
2023/11/28 07:02:08;;;;;;;13.33;10.70;;;0.60;99.90;;;-141.84;100.00;100596.16;5006356;28;20297;-71
2023/11/28 07:04:38;;;;;;;13.67;9.90;;;0.60;99.90;;;-141.84;100.00;100596.16;5013081;28;20242;-71
2023/11/28 07:07:06;;;;;;;14.03;10.17;;;0.50;99.90;;;-141.84;100.00;101923.81;5004625;28;20230;-69
2023/11/28 07:09:36;;;;;;;13.27;9.50;;;0.50;99.90;;;-141.84;100.00;103517.56;5005130;28;20228;-70
2023/11/28 07:12:06;;;;;;;13.63;9.50;;;0.40;99.90;;;-141.84;100.00;105909.34;5001727;28;20223;-71
2023/11/28 07:14:34;;;;;;;12.27;9.40;;;0.60;99.90;;;-141.84;100.00;104048.94;5012788;28;20230;-72
2023/11/28 07:17:03;;;;;;;13.17;9.63;;;0.60;99.90;;;-141.84;100.00;104580.41;5007320;28;20311;-72
2023/11/28 07:19:31;;;;;;;12.70;9.07;;;0.50;99.90;;;-141.84;100.00;104846.16;5006825;28;20271;-71
2023/11/28 07:22:01;;;;;;;11.17;9.03;;;0.60;99.90;;;-141.84;100.00;103251.88;4998423;28;20824;-71
2023/11/28 07:24:29;;;;;;;11.13;8.40;;;0.70;99.90;;;-141.84;100.00;103251.88;5012894;28;20202;-72
2023/11/28 07:26:57;;;;;;;12.37;9.03;;;0.60;99.90;;;-141.84;100.00;103251.88;5012807;28;20234;-72
2023/11/28 07:29:25;;;;;;;11.80;9.27;;;0.50;99.90;;;-141.84;100.00;102455.00;5012086;28;20350;-72
2023/11/28 07:31:53;;;;;;;12.20;9.03;;;0.50;99.90;;;-141.84;100.00;105909.34;5012249;28;20320;-72
2023/11/28 07:34:21;;;;;;;12.77;9.03;;;0.50;99.90;;;-141.84;100.00;105111.94;5003999;28;20670;-73
2023/11/28 07:36:51;;;;;;;10.57;8.37;;;0.60;99.90;;;-141.84;100.00;104580.41;5012123;28;20265;-72
2023/11/28 07:39:20;;;;;;;10.87;7.93;;;0.80;99.90;;;-141.84;100.00;104314.66;5012413;28;20204;-73
2023/11/28 07:41:49;;;;;;;10.57;8.37;;;0.50;99.90;;;-141.84;100.00;105643.53;5010875;28;20740;-72
2023/11/28 07:44:17;;;;;;;8.97;7.43;;;0.50;99.90;;;-141.84;100.00;103517.56;5012463;28;20258;-72
2023/11/28 07:46:45;;;;;;;11.93;8.77;;;0.50;99.90;;;-141.84;100.00;103783.25;5012161;28;20235;-74
2023/11/28 07:49:14;;;;;;;10.23;7.40;;;0.50;99.90;;;-141.84;100.00;100065.22;5003058;28;20239;-73
2023/11/28 07:51:42;;;;;;;10.63;8.20;;;0.70;99.90;;;-141.84;100.00;98207.50;5003804;28;20250;-73
2023/11/28 07:54:11;;;;;;;11.40;7.93;;;0.60;99.90;;;-141.84;100.00;96350.63;5010941;28;20412;-72
2023/11/28 07:56:40;;;;;;;9.67;7.70;;;0.60;99.90;;;-141.84;100.00;95555.09;5011610;28;20228;-71
2023/11/28 07:59:09;;;;;;;9.67;7.97;;;0.60;99.90;;;-141.84;100.00;93169.38;5011642;28;20284;-72
2023/11/28 08:01:37;;;;;;;10.30;7.73;;;0.70;99.90;;;-141.84;100.00;92904.41;5006699;28;20233;-71
2023/11/28 08:04:06;;;;;;;10.90;7.93;;;0.60;99.90;;;-141.84;100.00;94494.59;5011805;28;20229;-73
2023/11/28 08:06:34;;;;;;;10.93;8.13;;;0.60;99.90;;;-141.84;100.00;91049.97;5007727;28;20542;-73
2023/11/28 08:09:04;;;;;;;10.30;8.03;;;0.60;99.90;;;-141.84;100.00;92109.53;5003070;28;20298;-71
2023/11/28 08:11:32;;;;;;;12.03;7.93;;;0.70;99.90;;;-141.84;100.00;91844.63;4991929;28;20626;-71
2023/11/28 08:14:02;;;;;;;11.00;7.43;;;0.80;99.90;;;-141.84;100.00;89725.88;5006748;28;20222;-72
2023/11/28 08:16:30;;;;;;;10.10;7.30;;;0.70;99.90;;;-141.84;100.00;87608.25;5009818;28;20237;-72
2023/11/28 08:18:59;;;;;;;8.10;6.63;;;0.70;99.90;;;-141.84;100.00;83905.09;5010626;28;20744;-71
2023/11/28 08:21:27;;;;;;;9.87;7.17;;;0.70;99.90;;;-141.84;100.00;82847.66;5011044;28;20199;-71
2023/11/28 08:23:56;;;;;;;9.27;7.10;;;0.60;99.90;;;-141.84;100.00;79941.19;5011862;28;20265;-71
2023/11/28 08:26:24;;;;;;;8.10;6.63;;;0.60;99.90;;;-141.84;100.00;78620.75;5011274;28;20223;-71
2023/11/28 08:28:53;;;;;;;9.33;6.87;;;0.60;99.90;;;-141.84;100.00;82319.06;5010865;28;20222;-71
2023/11/28 08:31:23;;;;;;;8.90;6.33;;;0.60;99.90;;;-141.84;100.00;84169.50;4991890;28;20264;-72
2023/11/28 08:33:52;;;;;;;7.97;6.47;;;1.00;99.90;;;-141.84;100.00;88137.56;4991734;28;20248;-72
2023/11/28 08:36:20;;;;;;;8.27;6.70;;;0.60;99.90;;;-141.84;100.00;80205.34;4991568;28;20207;-71
2023/11/28 08:38:48;;;;;;;9.17;6.30;;;0.70;99.90;;;-141.84;100.00;74398.31;4992098;28;20578;-71
2023/11/28 08:41:16;;;;;;;7.57;5.90;;;0.70;99.90;;;-141.84;100.00;69389.94;4991322;28;20805;-73
2023/11/28 08:43:44;;;;;;;7.13;5.63;;;0.60;99.90;;;-141.84;100.00;74925.88;5004323;28;20227;-73
2023/11/28 08:46:14;;;;;;;7.47;6.00;;;0.60;99.90;;;-141.84;100.00;72025.13;5011192;28;20243;-71
2023/11/28 08:48:44;;;;;;;7.70;5.73;;;0.70;99.90;;;-141.84;100.00;65703.56;5011105;28;20296;-71
2023/11/28 08:51:12;;;;;;;7.80;5.50;;;0.60;99.90;;;-141.84;100.00;63598.59;5011780;28;20251;-72
2023/11/28 08:53:40;;;;;;;8.07;5.57;;;0.70;99.90;;;-141.84;100.00;70970.84;5011192;28;20219;-71
2023/11/28 08:56:13;;;;;;;6.13;5.50;;;0.60;99.90;;;-141.84;100.00;76508.97;5010718;28;20718;-71
2023/11/28 08:58:42;;;;;;;7.97;5.70;;;0.70;99.90;;;-141.84;100.00;67283.00;5010961;28;20227;-72
2023/11/28 09:01:10;;;;;;;6.50;5.40;;;0.80;99.90;;;-141.84;100.00;66756.44;4994737;28;20667;-72
2023/11/28 09:03:39;;;;;;;6.60;5.13;;;0.80;99.90;;;-141.84;100.00;58603.75;4991393;28;20230;-72
2023/11/28 09:06:09;;;;;;;7.50;5.27;;;0.90;99.90;;;-141.84;99.43;48894.97;4991404;28;20310;-71
2023/11/28 09:08:37;;;;;;;7.40;5.43;;;1.00;99.90;;;-141.84;100.00;50729.94;4991264;28;20278;-71
2023/11/28 09:11:13;;;;;;;7.70;5.03;;;0.90;99.90;;;-141.84;97.64;37988.78;4994206;28;20243;-71
2023/11/28 09:13:41;;;;;;;5.50;4.70;;;0.90;99.90;;;-141.84;97.06;33666.56;5010856;28;20281;-71
2023/11/28 09:16:12;;;;;;;6.43;5.07;;;0.90;99.90;;;-141.84;97.95;36239.31;5010815;28;20369;-72
2023/11/28 09:18:41;;;;;;;6.77;5.10;;;1.00;99.90;;;-141.84;97.47;33589.06;5010884;28;20219;-72
2023/11/28 09:21:10;;;;;;;6.93;5.30;;;0.90;99.90;;;-141.84;99.97;47846.78;5011677;28;20618;-72
2023/11/28 09:23:40;;;;;;;6.93;5.10;;;0.90;99.90;;;-141.84;99.19;46013.16;5010954;28;20242;-72
2023/11/28 09:26:08;;;;;;;8.33;5.73;;;0.90;99.90;;;-141.84;98.84;45489.41;5010577;28;20225;-71
2023/11/28 09:28:38;;;;;;;9.63;5.80;;;1.00;99.90;;;-141.84;98.68;41563.59;5010829;28;20328;-71
2023/11/28 09:31:07;;;;;;;9.30;6.30;;;1.00;99.90;;;-141.84;100.00;55977.41;5010533;28;20281;-71
2023/11/28 09:33:35;;;;;;;7.90;5.60;;;0.90;99.90;;;-141.84;100.00;54664.88;5010604;28;20231;-71
2023/11/28 09:36:05;;;;;;;9.23;6.80;;;0.90;99.90;;;-141.84;100.00;54927.34;5011187;28;20300;-72
2023/11/28 09:38:34;;;;;;;8.07;6.13;;;0.90;99.90;;;-141.84;100.00;52565.75;5010274;28;20269;-71
2023/11/28 09:41:02;;;;;;;9.47;6.67;;;0.80;99.90;;;-141.84;100.00;52303.44;5010700;28;20226;-71
2023/11/28 09:43:31;;;;;;;9.43;6.47;;;0.90;99.90;;;-141.84;100.00;52041.16;5010451;28;20234;-71
2023/11/28 09:46:02;;;;;;;12.00;6.93;;;0.80;99.90;;;-141.84;97.74;38691.22;5010354;28;20241;-71
2023/11/28 09:48:31;;;;;;;9.40;7.37;;;0.90;99.90;;;-141.84;97.88;35951.56;5010260;28;20700;-71
2023/11/28 09:51:03;;;;;;;8.73;6.77;;;0.80;99.90;;;-141.84;98.05;38395.13;5010597;28;20199;-71
2023/11/28 09:53:37;;;;;;;10.43;7.40;;;0.90;99.90;;;-141.84;98.63;41302.00;5009115;28;20231;-70
2023/11/28 09:56:09;;;;;;;9.73;7.33;;;0.80;99.90;;;-141.84;99.79;45751.28;5010196;28;20225;-70
2023/11/28 09:58:39;;;;;;;11.57;7.80;;;0.70;99.90;;;-141.84;100.00;51516.59;5010290;28;20247;-71
2023/11/28 10:01:12;;;;;;;10.67;7.73;;;0.70;99.90;;;-141.84;100.00;56239.94;4994035;28;20778;-72
2023/11/28 10:03:40;;;;;;;10.40;7.73;;;0.60;99.90;;;-141.84;98.63;42086.81;4990737;28;20294;-71
2023/11/28 10:06:13;;;;;;;11.03;7.87;;;0.70;99.90;;;-141.84;100.00;51516.59;4991299;28;20310;-70
2023/11/28 10:08:48;;;;;;;10.83;7.93;;;0.80;99.90;;;-141.84;100.00;52041.16;5006010;28;20219;-71
2023/11/28 10:11:18;;;;;;;11.13;8.10;;;0.70;99.90;;;-141.84;97.37;36425.03;5012035;28;20253;-70
2023/11/28 10:13:47;;;;;;;11.67;8.23;;;0.80;99.90;;;-141.84;96.25;30761.25;5013868;28;20768;-71
2023/11/28 10:16:15;;;;;;;11.40;8.10;;;0.80;99.90;;;-141.84;96.44;28882.59;5012152;28;20229;-70
2023/11/28 10:18:47;;;;;;;13.83;9.20;;;0.70;99.90;;;-141.84;97.00;32082.13;5010259;28;20281;-70
2023/11/28 10:21:17;;;;;;;13.73;9.40;;;0.70;99.90;;;-141.84;96.68;30041.88;5010117;28;20623;-70
2023/11/28 10:23:48;;;;;;;12.93;9.10;;;0.60;99.90;;;-141.84;97.53;33376.94;5010709;28;20228;-70